sensor_id;sensor_type;location;lat;lon;timestamp;pressure;altitude;pressure_sealevel;temperature;humidity
21574;BME280;10948;48.706;9.258;2023-04-28T00:02:01;97597.16;;;13.02;88.82
21574;BME280;10948;48.706;9.258;2023-04-28T00:04:26;97593.97;;;12.86;91.97
21574;BME280;10948;48.706;9.258;2023-04-28T00:06:52;97585.22;;;13.10;91.50
21574;BME280;10948;48.706;9.258;2023-04-28T00:09:17;97587.75;;;13.12;91.21
21574;BME280;10948;48.706;9.258;2023-04-28T00:11:45;97594.47;;;13.03;91.68
21574;BME280;10948;48.706;9.258;2023-04-28T00:14:11;97594.63;;;13.13;91.46
21574;BME280;10948;48.706;9.258;2023-04-28T00:16:36;97580.44;;;13.28;90.71
21574;BME280;10948;48.706;9.258;2023-04-28T00:19:01;97568.28;;;13.16;89.69
21574;BME280;10948;48.706;9.258;2023-04-28T00:21:27;97568.94;;;13.07;89.84
21574;BME280;10948;48.706;9.258;2023-04-28T00:23:52;97572.75;;;13.03;90.30
21574;BME280;10948;48.706;9.258;2023-04-28T00:26:18;97567.28;;;13.06;90.88
21574;BME280;10948;48.706;9.258;2023-04-28T00:28:43;97558.28;;;13.10;90.98
21574;BME280;10948;48.706;9.258;2023-04-28T00:31:12;97560.66;;;13.13;90.68
21574;BME280;10948;48.706;9.258;2023-04-28T00:33:38;97569.63;;;12.98;90.89
21574;BME280;10948;48.706;9.258;2023-04-28T00:36:03;97570.13;;;13.03;91.24
21574;BME280;10948;48.706;9.258;2023-04-28T00:38:29;97563.94;;;13.04;91.97
21574;BME280;10948;48.706;9.258;2023-04-28T00:40:54;97555.31;;;13.14;93.02
21574;BME280;10948;48.706;9.258;2023-04-28T00:43:19;97549.25;;;13.14;92.25
21574;BME280;10948;48.706;9.258;2023-04-28T00:45:45;97549.22;;;13.03;92.60
21574;BME280;10948;48.706;9.258;2023-04-28T00:48:12;97555.50;;;12.88;93.81
21574;BME280;10948;48.706;9.258;2023-04-28T00:50:40;97557.28;;;13.00;93.36
21574;BME280;10948;48.706;9.258;2023-04-28T00:53:06;97558.53;;;12.94;94.67
21574;BME280;10948;48.706;9.258;2023-04-28T00:55:31;97557.06;;;13.03;94.82
21574;BME280;10948;48.706;9.258;2023-04-28T00:57:58;97553.94;;;12.98;95.75
21574;BME280;10948;48.706;9.258;2023-04-28T01:00:24;97549.44;;;13.00;95.45
21574;BME280;10948;48.706;9.258;2023-04-28T01:02:50;97544.97;;;13.13;94.31
21574;BME280;10948;48.706;9.258;2023-04-28T01:05:16;97543.06;;;13.04;94.53
21574;BME280;10948;48.706;9.258;2023-04-28T01:07:41;97532.59;;;13.04;95.76
21574;BME280;10948;48.706;9.258;2023-04-28T01:10:06;97522.59;;;12.98;95.70
21574;BME280;10948;48.706;9.258;2023-04-28T01:12:32;97534.50;;;12.89;95.16
21574;BME280;10948;48.706;9.258;2023-04-28T01:14:57;97533.47;;;12.92;94.61
21574;BME280;10948;48.706;9.258;2023-04-28T01:17:23;97531.50;;;12.95;96.08
21574;BME280;10948;48.706;9.258;2023-04-28T01:19:48;97528.63;;;12.98;94.67
21574;BME280;10948;48.706;9.258;2023-04-28T01:22:13;97533.47;;;12.92;95.76
21574;BME280;10948;48.706;9.258;2023-04-28T01:24:40;97526.47;;;12.92;95.80
21574;BME280;10948;48.706;9.258;2023-04-28T01:27:05;97526.31;;;12.83;96.30
21574;BME280;10948;48.706;9.258;2023-04-28T01:29:30;97522.63;;;12.85;95.40
21574;BME280;10948;48.706;9.258;2023-04-28T01:31:56;97522.81;;;12.95;96.38
21574;BME280;10948;48.706;9.258;2023-04-28T01:34:21;97520.25;;;13.06;96.64
21574;BME280;10948;48.706;9.258;2023-04-28T01:36:46;97518.03;;;12.89;97.69
21574;BME280;10948;48.706;9.258;2023-04-28T01:39:11;97511.50;;;12.94;98.19
21574;BME280;10948;48.706;9.258;2023-04-28T01:41:36;97515.47;;;13.00;97.52
21574;BME280;10948;48.706;9.258;2023-04-28T01:44:02;97521.31;;;13.03;96.91
21574;BME280;10948;48.706;9.258;2023-04-28T01:46:28;97504.22;;;12.99;96.89
21574;BME280;10948;48.706;9.258;2023-04-28T01:48:53;97505.06;;;12.87;98.12
21574;BME280;10948;48.706;9.258;2023-04-28T01:51:18;97504.47;;;12.84;98.33
21574;BME280;10948;48.706;9.258;2023-04-28T01:53:43;97503.59;;;12.96;97.89
21574;BME280;10948;48.706;9.258;2023-04-28T01:56:16;97501.47;;;13.01;96.87
21574;BME280;10948;48.706;9.258;2023-04-28T01:58:41;97499.75;;;12.89;97.59
21574;BME280;10948;48.706;9.258;2023-04-28T02:01:09;97490.22;;;12.88;97.53
21574;BME280;10948;48.706;9.258;2023-04-28T02:03:35;97497.94;;;12.89;97.25
21574;BME280;10948;48.706;9.258;2023-04-28T02:06:00;97500.66;;;12.88;96.76
21574;BME280;10948;48.706;9.258;2023-04-28T02:08:26;97503.16;;;12.89;97.12
21574;BME280;10948;48.706;9.258;2023-04-28T02:10:51;97495.34;;;12.89;97.79
21574;BME280;10948;48.706;9.258;2023-04-28T02:13:16;97497.84;;;12.91;97.58
21574;BME280;10948;48.706;9.258;2023-04-28T02:15:42;97500.47;;;12.91;97.17
21574;BME280;10948;48.706;9.258;2023-04-28T02:18:08;97473.69;;;13.00;96.80
21574;BME280;10948;48.706;9.258;2023-04-28T02:20:33;97470.56;;;12.95;96.73
21574;BME280;10948;48.706;9.258;2023-04-28T02:22:58;97465.56;;;12.92;96.33
21574;BME280;10948;48.706;9.258;2023-04-28T02:25:23;97466.72;;;12.88;97.23
21574;BME280;10948;48.706;9.258;2023-04-28T02:27:48;97481.16;;;12.81;98.10
21574;BME280;10948;48.706;9.258;2023-04-28T02:30:14;97480.50;;;12.90;97.64
21574;BME280;10948;48.706;9.258;2023-04-28T02:32:39;97477.25;;;12.99;97.88
21574;BME280;10948;48.706;9.258;2023-04-28T02:35:04;97479.56;;;12.91;96.96
21574;BME280;10948;48.706;9.258;2023-04-28T02:37:30;97474.09;;;12.94;98.43
21574;BME280;10948;48.706;9.258;2023-04-28T02:39:55;97472.88;;;12.87;98.96
21574;BME280;10948;48.706;9.258;2023-04-28T02:42:20;97470.25;;;12.76;100.00
21574;BME280;10948;48.706;9.258;2023-04-28T02:44:46;97457.66;;;12.81;100.00
21574;BME280;10948;48.706;9.258;2023-04-28T02:47:11;97463.63;;;12.83;99.70
21574;BME280;10948;48.706;9.258;2023-04-28T02:49:36;97460.78;;;12.86;99.61
21574;BME280;10948;48.706;9.258;2023-04-28T02:52:01;97470.25;;;12.76;99.53
21574;BME280;10948;48.706;9.258;2023-04-28T02:54:26;97466.91;;;12.74;100.00
21574;BME280;10948;48.706;9.258;2023-04-28T02:56:52;97470.78;;;12.92;99.67
21574;BME280;10948;48.706;9.258;2023-04-28T02:59:18;97469.72;;;12.94;99.41
21574;BME280;10948;48.706;9.258;2023-04-28T03:01:43;97458.06;;;12.87;99.01
21574;BME280;10948;48.706;9.258;2023-04-28T03:04:08;97464.56;;;12.82;100.00
21574;BME280;10948;48.706;9.258;2023-04-28T03:06:33;97467.16;;;12.82;100.00
21574;BME280;10948;48.706;9.258;2023-04-28T03:08:59;97478.34;;;12.84;100.00
21574;BME280;10948;48.706;9.258;2023-04-28T03:11:24;97477.41;;;12.85;100.00
21574;BME280;10948;48.706;9.258;2023-04-28T03:13:49;97473.56;;;12.78;100.00
21574;BME280;10948;48.706;9.258;2023-04-28T03:16:15;97468.13;;;12.81;100.00
21574;BME280;10948;48.706;9.258;2023-04-28T03:18:41;97461.03;;;12.94;100.00
21574;BME280;10948;48.706;9.258;2023-04-28T03:21:06;97464.09;;;12.88;100.00
21574;BME280;10948;48.706;9.258;2023-04-28T03:23:32;97459.72;;;12.88;100.00
21574;BME280;10948;48.706;9.258;2023-04-28T03:25:57;97456.41;;;12.86;100.00
21574;BME280;10948;48.706;9.258;2023-04-28T03:28:22;97463.34;;;12.75;100.00
21574;BME280;10948;48.706;9.258;2023-04-28T03:30:48;97466.69;;;12.77;100.00
21574;BME280;10948;48.706;9.258;2023-04-28T03:33:13;97455.91;;;12.81;100.00
21574;BME280;10948;48.706;9.258;2023-04-28T03:35:38;97451.63;;;12.80;100.00
21574;BME280;10948;48.706;9.258;2023-04-28T03:38:03;97450.94;;;12.89;100.00
21574;BME280;10948;48.706;9.258;2023-04-28T03:40:28;97450.41;;;12.73;100.00
21574;BME280;10948;48.706;9.258;2023-04-28T03:42:54;97441.44;;;12.88;100.00
21574;BME280;10948;48.706;9.258;2023-04-28T03:45:19;97453.06;;;12.84;100.00
21574;BME280;10948;48.706;9.258;2023-04-28T03:47:44;97452.44;;;12.81;100.00
21574;BME280;10948;48.706;9.258;2023-04-28T03:50:09;97450.53;;;12.72;100.00
21574;BME280;10948;48.706;9.258;2023-04-28T03:52:35;97453.28;;;12.81;100.00
21574;BME280;10948;48.706;9.258;2023-04-28T03:55:00;97450.56;;;12.83;100.00
21574;BME280;10948;48.706;9.258;2023-04-28T03:57:25;97447.63;;;12.87;100.00
21574;BME280;10948;48.706;9.258;2023-04-28T03:59:50;97449.13;;;12.79;100.00
21574;BME280;10948;48.706;9.258;2023-04-28T04:02:16;97442.94;;;12.80;100.00
21574;BME280;10948;48.706;9.258;2023-04-28T04:04:41;97435.13;;;12.80;100.00
21574;BME280;10948;48.706;9.258;2023-04-28T04:07:06;97441.03;;;12.71;100.00
21574;BME280;10948;48.706;9.258;2023-04-28T04:09:32;97447.66;;;12.75;100.00
21574;BME280;10948;48.706;9.258;2023-04-28T04:11:57;97437.06;;;12.65;100.00
21574;BME280;10948;48.706;9.258;2023-04-28T04:14:23;97444.44;;;12.71;100.00
21574;BME280;10948;48.706;9.258;2023-04-28T04:16:48;97440.94;;;12.83;100.00
21574;BME280;10948;48.706;9.258;2023-04-28T04:19:13;97443.06;;;12.78;100.00
21574;BME280;10948;48.706;9.258;2023-04-28T04:21:38;97431.69;;;12.79;100.00
21574;BME280;10948;48.706;9.258;2023-04-28T04:24:04;97439.53;;;12.79;100.00
21574;BME280;10948;48.706;9.258;2023-04-28T04:26:29;97438.44;;;12.82;100.00
21574;BME280;10948;48.706;9.258;2023-04-28T04:28:54;97431.78;;;12.78;100.00
21574;BME280;10948;48.706;9.258;2023-04-28T04:31:20;97432.28;;;12.83;100.00
21574;BME280;10948;48.706;9.258;2023-04-28T04:33:46;97428.84;;;12.82;100.00
21574;BME280;10948;48.706;9.258;2023-04-28T04:36:12;97420.91;;;12.84;100.00
21574;BME280;10948;48.706;9.258;2023-04-28T04:38:37;97418.25;;;12.73;100.00
21574;BME280;10948;48.706;9.258;2023-04-28T04:41:03;97421.34;;;12.78;100.00
21574;BME280;10948;48.706;9.258;2023-04-28T04:43:28;97431.56;;;12.81;100.00
21574;BME280;10948;48.706;9.258;2023-04-28T04:45:53;97429.44;;;12.86;100.00
21574;BME280;10948;48.706;9.258;2023-04-28T04:48:18;97429.69;;;12.83;100.00
21574;BME280;10948;48.706;9.258;2023-04-28T04:50:44;97434.31;;;12.79;100.00
21574;BME280;10948;48.706;9.258;2023-04-28T04:53:09;97441.78;;;12.84;100.00
21574;BME280;10948;48.706;9.258;2023-04-28T04:55:34;97441.06;;;12.82;100.00
21574;BME280;10948;48.706;9.258;2023-04-28T04:57:59;97435.72;;;12.83;100.00
21574;BME280;10948;48.706;9.258;2023-04-28T05:00:25;97431.34;;;12.84;100.00
21574;BME280;10948;48.706;9.258;2023-04-28T05:02:50;97434.91;;;12.83;100.00
21574;BME280;10948;48.706;9.258;2023-04-28T05:05:15;97438.84;;;12.88;100.00
21574;BME280;10948;48.706;9.258;2023-04-28T05:07:41;97439.03;;;12.85;100.00
21574;BME280;10948;48.706;9.258;2023-04-28T05:10:07;97438.94;;;12.87;100.00
21574;BME280;10948;48.706;9.258;2023-04-28T05:12:32;97436.72;;;12.93;100.00
21574;BME280;10948;48.706;9.258;2023-04-28T05:14:57;97429.69;;;12.83;100.00
21574;BME280;10948;48.706;9.258;2023-04-28T05:17:23;97426.78;;;12.75;100.00
21574;BME280;10948;48.706;9.258;2023-04-28T05:19:48;97433.22;;;12.82;100.00
21574;BME280;10948;48.706;9.258;2023-04-28T05:22:13;97433.59;;;12.88;100.00
21574;BME280;10948;48.706;9.258;2023-04-28T05:24:38;97437.28;;;12.86;100.00
21574;BME280;10948;48.706;9.258;2023-04-28T05:27:04;97430.50;;;12.83;100.00
21574;BME280;10948;48.706;9.258;2023-04-28T05:29:29;97431.84;;;12.89;100.00
21574;BME280;10948;48.706;9.258;2023-04-28T05:31:54;97436.31;;;12.87;100.00
21574;BME280;10948;48.706;9.258;2023-04-28T05:34:19;97437.88;;;12.89;100.00
21574;BME280;10948;48.706;9.258;2023-04-28T05:36:45;97432.31;;;12.94;100.00
21574;BME280;10948;48.706;9.258;2023-04-28T05:39:10;97437.53;;;12.94;100.00
21574;BME280;10948;48.706;9.258;2023-04-28T05:41:35;97431.59;;;12.92;100.00
21574;BME280;10948;48.706;9.258;2023-04-28T05:44:01;97430.75;;;12.80;100.00
21574;BME280;10948;48.706;9.258;2023-04-28T05:46:26;97435.13;;;12.80;100.00
21574;BME280;10948;48.706;9.258;2023-04-28T05:48:51;97429.22;;;12.89;100.00
21574;BME280;10948;48.706;9.258;2023-04-28T05:51:16;97426.28;;;12.93;100.00
21574;BME280;10948;48.706;9.258;2023-04-28T05:53:42;97432.13;;;12.97;100.00
21574;BME280;10948;48.706;9.258;2023-04-28T05:56:07;97434.59;;;12.98;100.00
21574;BME280;10948;48.706;9.258;2023-04-28T05:58:33;97438.56;;;13.04;100.00
21574;BME280;10948;48.706;9.258;2023-04-28T06:00:58;97437.34;;;12.97;100.00
21574;BME280;10948;48.706;9.258;2023-04-28T06:03:23;97435.81;;;13.05;100.00
21574;BME280;10948;48.706;9.258;2023-04-28T06:05:49;97442.13;;;13.03;100.00
21574;BME280;10948;48.706;9.258;2023-04-28T06:08:14;97440.44;;;13.02;100.00
21574;BME280;10948;48.706;9.258;2023-04-28T06:10:40;97443.88;;;13.02;100.00
21574;BME280;10948;48.706;9.258;2023-04-28T06:13:05;97438.81;;;13.12;100.00
21574;BME280;10948;48.706;9.258;2023-04-28T06:15:31;97439.50;;;13.14;100.00
21574;BME280;10948;48.706;9.258;2023-04-28T06:17:56;97432.53;;;13.25;100.00
21574;BME280;10948;48.706;9.258;2023-04-28T06:20:23;97428.38;;;13.23;100.00
21574;BME280;10948;48.706;9.258;2023-04-28T06:22:48;97433.09;;;13.07;100.00
21574;BME280;10948;48.706;9.258;2023-04-28T06:25:13;97441.19;;;13.15;100.00
21574;BME280;10948;48.706;9.258;2023-04-28T06:27:38;97436.78;;;13.15;100.00
21574;BME280;10948;48.706;9.258;2023-04-28T06:30:04;97435.75;;;13.18;100.00
21574;BME280;10948;48.706;9.258;2023-04-28T06:32:29;97424.78;;;13.13;100.00
21574;BME280;10948;48.706;9.258;2023-04-28T06:34:55;97424.91;;;13.11;100.00
21574;BME280;10948;48.706;9.258;2023-04-28T06:37:20;97420.06;;;13.18;100.00
21574;BME280;10948;48.706;9.258;2023-04-28T06:39:45;97418.41;;;13.17;100.00
21574;BME280;10948;48.706;9.258;2023-04-28T06:42:11;97418.41;;;13.17;100.00
21574;BME280;10948;48.706;9.258;2023-04-28T06:44:36;97420.75;;;13.09;100.00
21574;BME280;10948;48.706;9.258;2023-04-28T06:47:01;97416.94;;;13.13;100.00
21574;BME280;10948;48.706;9.258;2023-04-28T06:49:26;97412.31;;;13.16;100.00
21574;BME280;10948;48.706;9.258;2023-04-28T06:51:51;97415.03;;;13.15;100.00
21574;BME280;10948;48.706;9.258;2023-04-28T06:54:17;97410.78;;;13.03;100.00
21574;BME280;10948;48.706;9.258;2023-04-28T06:56:42;97420.53;;;13.12;100.00
21574;BME280;10948;48.706;9.258;2023-04-28T06:59:09;97405.09;;;13.20;100.00
21574;BME280;10948;48.706;9.258;2023-04-28T07:01:35;97405.44;;;13.15;100.00
21574;BME280;10948;48.706;9.258;2023-04-28T07:04:01;97404.28;;;13.19;100.00
21574;BME280;10948;48.706;9.258;2023-04-28T07:06:26;97404.25;;;13.30;100.00
21574;BME280;10948;48.706;9.258;2023-04-28T07:08:52;97409.38;;;13.10;100.00
21574;BME280;10948;48.706;9.258;2023-04-28T07:11:17;97408.19;;;13.25;100.00
21574;BME280;10948;48.706;9.258;2023-04-28T07:13:42;97400.09;;;13.28;100.00
21574;BME280;10948;48.706;9.258;2023-04-28T07:16:08;97402.50;;;13.31;100.00
21574;BME280;10948;48.706;9.258;2023-04-28T07:18:35;97399.88;;;13.31;100.00
21574;BME280;10948;48.706;9.258;2023-04-28T07:21:00;97395.63;;;13.30;100.00
21574;BME280;10948;48.706;9.258;2023-04-28T07:23:25;97396.06;;;13.35;100.00
21574;BME280;10948;48.706;9.258;2023-04-28T07:25:51;97399.16;;;13.40;100.00
21574;BME280;10948;48.706;9.258;2023-04-28T07:28:16;97393.13;;;13.39;100.00
21574;BME280;10948;48.706;9.258;2023-04-28T07:30:41;97394.88;;;13.28;100.00
21574;BME280;10948;48.706;9.258;2023-04-28T07:33:07;97385.63;;;13.46;100.00
21574;BME280;10948;48.706;9.258;2023-04-28T07:35:32;97378.38;;;13.49;100.00
21574;BME280;10948;48.706;9.258;2023-04-28T07:37:59;97385.25;;;13.50;100.00
21574;BME280;10948;48.706;9.258;2023-04-28T07:40:26;97383.03;;;13.57;100.00
21574;BME280;10948;48.706;9.258;2023-04-28T07:42:51;97389.22;;;13.56;100.00
21574;BME280;10948;48.706;9.258;2023-04-28T07:45:17;97381.59;;;13.64;100.00
21574;BME280;10948;48.706;9.258;2023-04-28T07:47:42;97377.53;;;13.71;100.00
21574;BME280;10948;48.706;9.258;2023-04-28T07:50:07;97382.06;;;13.69;100.00
21574;BME280;10948;48.706;9.258;2023-04-28T07:52:33;97381.81;;;13.72;100.00
21574;BME280;10948;48.706;9.258;2023-04-28T07:54:58;97379.44;;;13.69;100.00
21574;BME280;10948;48.706;9.258;2023-04-28T07:57:24;97381.81;;;13.72;100.00
21574;BME280;10948;48.706;9.258;2023-04-28T07:59:50;97378.72;;;13.78;100.00
21574;BME280;10948;48.706;9.258;2023-04-28T08:02:15;97387.53;;;13.77;100.00
21574;BME280;10948;48.706;9.258;2023-04-28T08:04:40;97383.69;;;13.81;100.00
21574;BME280;10948;48.706;9.258;2023-04-28T08:07:07;97383.69;;;13.81;100.00
21574;BME280;10948;48.706;9.258;2023-04-28T08:09:32;97393.69;;;13.87;100.00
21574;BME280;10948;48.706;9.258;2023-04-28T08:11:59;97414.84;;;13.84;100.00
21574;BME280;10948;48.706;9.258;2023-04-28T08:14:25;97406.91;;;13.85;100.00
21574;BME280;10948;48.706;9.258;2023-04-28T08:16:50;97405.09;;;13.86;100.00
21574;BME280;10948;48.706;9.258;2023-04-28T08:19:15;97404.41;;;13.84;100.00
21574;BME280;10948;48.706;9.258;2023-04-28T08:21:42;97412.59;;;13.79;100.00
21574;BME280;10948;48.706;9.258;2023-04-28T08:24:07;97414.50;;;13.77;100.00
21574;BME280;10948;48.706;9.258;2023-04-28T08:26:35;97413.53;;;13.78;100.00
21574;BME280;10948;48.706;9.258;2023-04-28T08:29:00;97418.19;;;13.86;100.00
21574;BME280;10948;48.706;9.258;2023-04-28T08:31:26;97420.78;;;13.86;100.00
21574;BME280;10948;48.706;9.258;2023-04-28T08:33:52;97420.44;;;13.90;100.00
21574;BME280;10948;48.706;9.258;2023-04-28T08:36:17;97420.06;;;13.95;100.00
21574;BME280;10948;48.706;9.258;2023-04-28T08:38:43;97425.88;;;14.09;100.00
21574;BME280;10948;48.706;9.258;2023-04-28T08:41:09;97427.56;;;14.21;100.00
21574;BME280;10948;48.706;9.258;2023-04-28T08:43:35;97420.28;;;14.25;100.00
21574;BME280;10948;48.706;9.258;2023-04-28T08:46:04;97428.81;;;14.38;100.00
21574;BME280;10948;48.706;9.258;2023-04-28T08:48:30;97430.47;;;14.39;100.00
21574;BME280;10948;48.706;9.258;2023-04-28T08:50:57;97432.94;;;14.51;100.00
21574;BME280;10948;48.706;9.258;2023-04-28T08:53:24;97432.78;;;14.64;100.00
21574;BME280;10948;48.706;9.258;2023-04-28T08:55:56;97436.59;;;14.60;100.00
21574;BME280;10948;48.706;9.258;2023-04-28T08:58:25;97436.59;;;14.60;100.00
21574;BME280;10948;48.706;9.258;2023-04-28T09:00:51;97438.75;;;14.55;100.00
21574;BME280;10948;48.706;9.258;2023-04-28T09:03:17;97450.44;;;14.51;100.00
21574;BME280;10948;48.706;9.258;2023-04-28T09:05:42;97439.31;;;14.58;100.00
21574;BME280;10948;48.706;9.258;2023-04-28T09:08:08;97453.97;;;14.61;100.00
21574;BME280;10948;48.706;9.258;2023-04-28T09:10:33;97457.81;;;14.57;100.00
21574;BME280;10948;48.706;9.258;2023-04-28T09:12:59;97454.69;;;14.63;100.00
21574;BME280;10948;48.706;9.258;2023-04-28T09:15:25;97460.72;;;14.74;100.00
21574;BME280;10948;48.706;9.258;2023-04-28T09:17:51;97450.13;;;14.76;100.00
21574;BME280;10948;48.706;9.258;2023-04-28T09:20:20;97455.88;;;14.90;100.00
21574;BME280;10948;48.706;9.258;2023-04-28T09:22:46;97454.28;;;14.99;100.00
21574;BME280;10948;48.706;9.258;2023-04-28T09:25:12;97453.22;;;15.01;100.00
21574;BME280;10948;48.706;9.258;2023-04-28T09:27:37;97456.47;;;14.94;100.00
21574;BME280;10948;48.706;9.258;2023-04-28T09:30:03;97460.69;;;15.06;100.00
21574;BME280;10948;48.706;9.258;2023-04-28T09:32:28;97460.00;;;15.04;100.00
21574;BME280;10948;48.706;9.258;2023-04-28T09:34:54;97461.47;;;14.97;100.00
21574;BME280;10948;48.706;9.258;2023-04-28T09:37:24;97460.97;;;15.03;100.00
21574;BME280;10948;48.706;9.258;2023-04-28T09:39:51;97461.63;;;15.16;100.00
21574;BME280;10948;48.706;9.258;2023-04-28T09:45:01;97457.19;;;15.57;100.00
21574;BME280;10948;48.706;9.258;2023-04-28T09:47:27;97451.78;;;15.79;100.00
21574;BME280;10948;48.706;9.258;2023-04-28T09:49:56;97451.84;;;15.89;100.00
21574;BME280;10948;48.706;9.258;2023-04-28T09:52:23;97449.09;;;16.00;100.00
21574;BME280;10948;48.706;9.258;2023-04-28T09:54:49;97451.72;;;16.00;100.00
21574;BME280;10948;48.706;9.258;2023-04-28T09:57:15;97448.06;;;16.21;100.00
21574;BME280;10948;48.706;9.258;2023-04-28T09:59:41;97449.53;;;16.54;100.00
21574;BME280;10948;48.706;9.258;2023-04-28T10:02:10;97445.84;;;17.03;100.00
21574;BME280;10948;48.706;9.258;2023-04-28T10:04:37;97440.44;;;17.14;100.00
21574;BME280;10948;48.706;9.258;2023-04-28T10:07:03;97447.59;;;17.31;100.00
21574;BME280;10948;48.706;9.258;2023-04-28T10:09:28;97446.13;;;17.75;100.00
21574;BME280;10948;48.706;9.258;2023-04-28T10:11:56;97446.78;;;17.86;100.00
21574;BME280;10948;48.706;9.258;2023-04-28T10:14:21;97436.66;;;17.91;100.00
21574;BME280;10948;48.706;9.258;2023-04-28T10:16:48;97438.72;;;17.51;100.00
21574;BME280;10948;48.706;9.258;2023-04-28T10:19:16;97437.66;;;17.44;100.00
21574;BME280;10948;48.706;9.258;2023-04-28T10:21:43;97440.50;;;17.60;100.00
21574;BME280;10948;48.706;9.258;2023-04-28T10:24:14;97441.75;;;17.66;100.00
21574;BME280;10948;48.706;9.258;2023-04-28T10:26:53;97435.22;;;17.60;100.00
21574;BME280;10948;48.706;9.258;2023-04-28T10:29:22;97437.53;;;17.82;100.00
21574;BME280;10948;48.706;9.258;2023-04-28T10:34:33;97426.59;;;17.77;100.00
21574;BME280;10948;48.706;9.258;2023-04-28T10:36:58;97428.66;;;17.83;100.00
21574;BME280;10948;48.706;9.258;2023-04-28T10:39:24;97433.63;;;17.86;100.00
21574;BME280;10948;48.706;9.258;2023-04-28T10:41:49;97436.81;;;17.80;100.00
21574;BME280;10948;48.706;9.258;2023-04-28T10:47:05;97432.91;;;17.94;100.00
21574;BME280;10948;48.706;9.258;2023-04-28T10:53:03;97437.03;;;17.69;100.00
21574;BME280;10948;48.706;9.258;2023-04-28T10:58:29;97432.97;;;18.11;100.00
21574;BME280;10948;48.706;9.258;2023-04-28T11:00:33;97429.56;;;18.28;100.00
21574;BME280;10948;48.706;9.258;2023-04-28T11:02:59;97437.84;;;18.33;100.00
21574;BME280;10948;48.706;9.258;2023-04-28T11:05:24;97433.38;;;18.43;100.00
21574;BME280;10948;48.706;9.258;2023-04-28T11:11:10;97434.06;;;19.15;100.00
21574;BME280;10948;48.706;9.258;2023-04-28T11:13:35;97433.09;;;18.99;100.00
21574;BME280;10948;48.706;9.258;2023-04-28T11:16:02;97429.69;;;18.89;100.00
21574;BME280;10948;48.706;9.258;2023-04-28T11:18:27;97431.03;;;19.10;100.00
21574;BME280;10948;48.706;9.258;2023-04-28T11:20:52;97434.16;;;19.23;100.00
21574;BME280;10948;48.706;9.258;2023-04-28T11:23:21;97432.56;;;19.30;100.00
21574;BME280;10948;48.706;9.258;2023-04-28T11:25:55;97437.78;;;19.22;100.00
21574;BME280;10948;48.706;9.258;2023-04-28T11:28:21;97432.69;;;19.11;100.00
21574;BME280;10948;48.706;9.258;2023-04-28T11:30:47;97430.38;;;19.08;100.00
21574;BME280;10948;48.706;9.258;2023-04-28T11:33:12;97436.72;;;18.98;100.00
21574;BME280;10948;48.706;9.258;2023-04-28T11:35:40;97432.84;;;18.92;100.00
21574;BME280;10948;48.706;9.258;2023-04-28T11:38:06;97428.41;;;19.10;100.00
21574;BME280;10948;48.706;9.258;2023-04-28T11:40:31;97435.13;;;19.22;100.00
21574;BME280;10948;48.706;9.258;2023-04-28T11:42:56;97426.28;;;19.31;100.00
21574;BME280;10948;48.706;9.258;2023-04-28T11:45:23;97424.34;;;19.33;100.00
21574;BME280;10948;48.706;9.258;2023-04-28T11:47:49;97422.47;;;19.51;100.00
21574;BME280;10948;48.706;9.258;2023-04-28T11:50:14;97418.22;;;19.58;100.00
21574;BME280;10948;48.706;9.258;2023-04-28T11:52:49;97416.56;;;19.57;100.00
21574;BME280;10948;48.706;9.258;2023-04-28T11:55:17;97419.22;;;19.57;100.00
21574;BME280;10948;48.706;9.258;2023-04-28T11:57:43;97414.09;;;19.30;100.00
21574;BME280;10948;48.706;9.258;2023-04-28T12:00:12;97410.06;;;19.44;100.00
21574;BME280;10948;48.706;9.258;2023-04-28T12:02:38;97408.59;;;19.49;100.00
21574;BME280;10948;48.706;9.258;2023-04-28T12:05:04;97408.75;;;19.22;100.00
21574;BME280;10948;48.706;9.258;2023-04-28T12:07:38;97412.38;;;19.04;100.00
21574;BME280;10948;48.706;9.258;2023-04-28T12:10:13;97417.53;;;19.13;100.00
21574;BME280;10948;48.706;9.258;2023-04-28T12:12:40;97423.50;;;19.15;100.00
21574;BME280;10948;48.706;9.258;2023-04-28T12:15:06;97419.31;;;19.22;100.00
21574;BME280;10948;48.706;9.258;2023-04-28T12:17:41;97429.53;;;19.08;100.00
21574;BME280;10948;48.706;9.258;2023-04-28T12:20:07;97420.88;;;19.15;100.00
21574;BME280;10948;48.706;9.258;2023-04-28T12:22:45;97417.13;;;19.00;100.00
21574;BME280;10948;48.706;9.258;2023-04-28T12:25:12;97408.31;;;18.92;100.00
21574;BME280;10948;48.706;9.258;2023-04-28T12:27:38;97416.72;;;19.13;100.00
21574;BME280;10948;48.706;9.258;2023-04-28T12:30:26;97415.38;;;18.91;100.00
21574;BME280;10948;48.706;9.258;2023-04-28T12:32:50;97422.31;;;18.75;100.00
21574;BME280;10948;48.706;9.258;2023-04-28T12:35:15;97419.00;;;18.73;100.00
21574;BME280;10948;48.706;9.258;2023-04-28T12:37:41;97420.59;;;18.83;100.00
21574;BME280;10948;48.706;9.258;2023-04-28T12:40:07;97418.41;;;18.96;100.00
21574;BME280;10948;48.706;9.258;2023-04-28T12:42:32;97416.34;;;19.08;100.00
21574;BME280;10948;48.706;9.258;2023-04-28T12:44:58;97415.31;;;19.69;100.00
21574;BME280;10948;48.706;9.258;2023-04-28T12:47:23;97411.47;;;19.89;100.00
21574;BME280;10948;48.706;9.258;2023-04-28T12:49:48;97417.06;;;19.86;100.00
21574;BME280;10948;48.706;9.258;2023-04-28T12:52:16;97403.81;;;19.78;100.00
21574;BME280;10948;48.706;9.258;2023-04-28T12:54:42;97404.81;;;19.77;100.00
21574;BME280;10948;48.706;9.258;2023-04-28T12:57:11;97408.69;;;19.65;100.00
21574;BME280;10948;48.706;9.258;2023-04-28T12:59:37;97404.53;;;19.63;100.00
21574;BME280;10948;48.706;9.258;2023-04-28T13:02:02;97409.09;;;19.78;100.00
21574;BME280;10948;48.706;9.258;2023-04-28T13:04:27;97400.69;;;20.08;100.00